Time;durP1;ratioP1;P1;durP2;ratioP2;P2;SDS_P1;SDS_P2;PMS_P1;PMS_P2;Temp;Humidity;BMP_temperature;BMP_pressure;BME280_temperature;BME280_humidity;BME280_pressure;Samples;Min_cycle;Max_cycle;Signal;HPM_P1;HPM_P2
2023/02/02 00:00:01;;;;;;;10.03;4.40;;;7.60;99.90;;;;;;5071885;28;20178;-63
2023/02/02 00:02:27;;;;;;;10.27;4.63;;;7.70;99.90;;;;;;5072505;28;20436;-63
2023/02/02 00:04:52;;;;;;;12.30;4.70;;;7.60;99.90;;;;;;5071331;28;20467;-63
2023/02/02 00:07:18;;;;;;;10.73;3.87;;;7.60;99.90;;;;;;5072851;28;20214;-62
2023/02/02 00:09:43;;;;;;;11.60;3.60;;;7.60;99.90;;;;;;5076055;28;20206;-63
2023/02/02 00:12:09;;;;;;;11.93;3.97;;;7.50;99.90;;;;;;5072876;28;20186;-63
2023/02/02 00:14:34;;;;;;;7.30;3.33;;;7.60;99.90;;;;;;5075017;28;20202;-63
2023/02/02 00:17:00;;;;;;;12.83;3.93;;;7.70;99.90;;;;;;5073546;28;20206;-63
2023/02/02 00:19:32;;;;;;;13.27;4.07;;;7.60;99.90;;;;;;5072192;28;20189;-63
2023/02/02 00:21:57;;;;;;;16.63;4.20;;;7.50;99.90;;;;;;5072612;28;20178;-63
2023/02/02 00:24:23;;;;;;;15.37;4.77;;;7.50;99.90;;;;;;5076115;28;21005;-63
2023/02/02 00:26:57;;;;;;;12.00;3.80;;;7.40;99.90;;;;;;5076455;28;20480;-63
2023/02/02 00:29:26;;;;;;;11.67;4.10;;;7.50;99.90;;;;;;5075276;28;20432;-63
2023/02/02 00:31:51;;;;;;;7.87;3.63;;;7.50;99.90;;;;;;5076028;28;20578;-63
2023/02/02 00:34:18;;;;;;;10.73;3.57;;;7.60;99.90;;;;;;5070264;28;20536;-63
2023/02/02 00:36:44;;;;;;;14.23;4.40;;;7.50;99.90;;;;;;5056232;28;20453;-63
2023/02/02 00:39:14;;;;;;;15.40;3.90;;;7.50;99.90;;;;;;5057522;28;21884;-63
2023/02/02 00:41:40;;;;;;;9.50;4.17;;;7.50;99.90;;;;;;5077187;28;20448;-63
2023/02/02 00:46:50;;;;;;;8.63;3.47;;;7.50;99.90;;;;;;5075863;28;20229;-62
2023/02/02 00:49:15;;;;;;;12.00;4.33;;;7.40;99.90;;;;;;5070213;28;20428;-63
2023/02/02 00:51:41;;;;;;;10.83;4.47;;;7.40;99.90;;;;;;5073990;28;22057;-63
2023/02/02 00:54:06;;;;;;;6.30;2.90;;;7.30;99.90;;;;;;5069742;28;20190;-63
2023/02/02 00:56:32;;;;;;;6.90;4.00;;;7.40;99.90;;;;;;5072441;28;20305;-63
2023/02/02 00:58:58;;;;;;;6.90;3.00;;;7.40;99.90;;;;;;5070957;28;20555;-63
2023/02/02 01:01:23;;;;;;;10.03;3.80;;;7.30;99.90;;;;;;5073058;28;20214;-63
2023/02/02 01:03:50;;;;;;;10.40;3.70;;;7.30;99.90;;;;;;5053885;28;20296;-63
2023/02/02 01:06:16;;;;;;;13.60;3.73;;;7.30;99.90;;;;;;5053883;28;20229;-63
2023/02/02 01:08:42;;;;;;;10.77;3.20;;;7.20;99.90;;;;;;5072113;28;20577;-63
2023/02/02 01:11:08;;;;;;;10.77;2.70;;;7.30;99.90;;;;;;5071896;28;20667;-63
2023/02/02 01:13:34;;;;;;;7.53;3.57;;;7.30;99.90;;;;;;5073358;28;20190;-63
2023/02/02 01:16:00;;;;;;;8.30;3.37;;;7.30;99.90;;;;;;5070902;28;20310;-63
2023/02/02 01:18:27;;;;;;;8.57;3.37;;;7.30;99.90;;;;;;5071873;28;20441;-63
2023/02/02 01:20:58;;;;;;;10.03;3.33;;;7.40;99.90;;;;;;5074226;28;20436;-63
2023/02/02 01:23:23;;;;;;;12.77;3.50;;;7.40;99.90;;;;;;5076182;28;21113;-63
2023/02/02 01:25:56;;;;;;;7.63;3.30;;;7.40;99.90;;;;;;5075103;28;20460;-63
2023/02/02 01:28:23;;;;;;;11.07;3.60;;;7.40;99.90;;;;;;5067657;28;20198;-63
2023/02/02 01:30:48;;;;;;;9.07;3.60;;;7.40;99.90;;;;;;5055815;28;20444;-63
2023/02/02 01:33:15;;;;;;;9.43;3.70;;;7.60;99.90;;;;;;5072498;28;21743;-63
2023/02/02 01:35:55;;;;;;;10.93;3.83;;;7.60;99.90;;;;;;5075018;28;20628;-63
2023/02/02 01:38:21;;;;;;;13.00;3.77;;;7.60;99.90;;;;;;5072588;28;20435;-63
2023/02/02 01:40:49;;;;;;;8.47;4.77;;;7.70;99.90;;;;;;5070290;28;20588;-63
2023/02/02 01:43:22;;;;;;;8.57;3.50;;;7.70;99.90;;;;;;5071720;28;20433;-63
2023/02/02 01:45:48;;;;;;;13.87;4.10;;;7.70;99.90;;;;;;5071542;28;20495;-63
2023/02/02 01:48:14;;;;;;;10.93;3.57;;;7.70;99.90;;;;;;5072222;28;20475;-63
2023/02/02 01:50:40;;;;;;;9.10;3.13;;;7.60;99.90;;;;;;5070077;28;20648;-63
2023/02/02 01:53:06;;;;;;;11.53;4.07;;;7.50;99.90;;;;;;5070583;28;20463;-63
2023/02/02 01:55:34;;;;;;;10.57;3.33;;;7.50;99.90;;;;;;5057333;28;20648;-63
2023/02/02 01:58:05;;;;;;;11.20;4.07;;;7.50;99.90;;;;;;5073306;28;20515;-63
2023/02/02 02:00:31;;;;;;;5.80;3.00;;;7.50;99.90;;;;;;5073358;28;20440;-62
2023/02/02 02:03:02;;;;;;;7.73;3.83;;;7.50;99.90;;;;;;5070252;28;20764;-63
2023/02/02 02:05:31;;;;;;;7.97;3.00;;;7.40;99.90;;;;;;5071892;28;20794;-62
2023/02/02 02:08:06;;;;;;;17.43;3.67;;;7.30;99.90;;;;;;5066929;28;20493;-63
2023/02/02 02:10:33;;;;;;;11.80;3.50;;;7.30;99.90;;;;;;5070400;28;20436;-63
2023/02/02 02:12:59;;;;;;;7.53;3.00;;;7.30;99.90;;;;;;5072088;28;20424;-62
2023/02/02 02:18:28;;;;;;;7.73;3.50;;;7.30;99.90;;;;;;5073033;28;20275;-62
2023/02/02 02:27:37;;;;;;;6.73;3.13;;;7.20;99.90;;;;;;5072384;28;20458;-63
2023/02/02 02:30:22;;;;;;;15.47;4.07;;;7.30;99.90;;;;;;5069198;28;20857;-63
2023/02/02 02:32:55;;;;;;;8.90;3.20;;;7.30;99.90;;;;;;5073812;28;20519;-63
2023/02/02 02:35:45;;;;;;;5.97;3.13;;;7.30;99.90;;;;;;5070298;28;20859;-63
2023/02/02 02:38:38;;;;;;;16.33;4.37;;;7.30;99.90;;;;;;5069974;28;20442;-63
2023/02/02 02:41:10;;;;;;;9.30;3.40;;;7.30;99.90;;;;;;5064708;28;20464;-63
2023/02/02 02:44:03;;;;;;;11.43;4.17;;;7.30;99.90;;;;;;5069875;28;20432;-62
2023/02/02 02:46:30;;;;;;;12.23;4.83;;;7.20;99.90;;;;;;5072081;28;20507;-64
2023/02/02 02:48:57;;;;;;;10.10;4.50;;;7.20;99.90;;;;;;5075556;28;20421;-63
2023/02/02 02:51:49;;;;;;;11.10;3.40;;;7.20;99.90;;;;;;5066013;28;20448;-63
2023/02/02 02:54:24;;;;;;;7.33;3.10;;;7.30;99.90;;;;;;5050910;28;20479;-63
2023/02/02 02:57:14;;;;;;;8.03;3.30;;;7.30;99.90;;;;;;5054913;28;20467;-63
2023/02/02 02:59:59;;;;;;;9.37;3.70;;;7.30;99.90;;;;;;5073275;28;20480;-63
2023/02/02 03:02:50;;;;;;;7.43;4.37;;;7.20;99.90;;;;;;5069462;28;20431;-63
2023/02/02 03:05:40;;;;;;;10.53;3.37;;;7.20;99.90;;;;;;5068516;28;20473;-63
2023/02/02 03:08:19;;;;;;;12.03;4.43;;;7.30;99.90;;;;;;5051426;28;20520;-63
2023/02/02 03:10:46;;;;;;;9.30;3.80;;;7.20;99.90;;;;;;5073844;28;20421;-63
2023/02/02 03:13:13;;;;;;;7.50;3.67;;;7.10;99.90;;;;;;5068793;28;20785;-62
2023/02/02 03:15:41;;;;;;;7.60;3.70;;;7.00;99.90;;;;;;5074903;28;20463;-63
2023/02/02 03:18:06;;;;;;;9.60;3.37;;;7.00;99.90;;;;;;5071039;28;20821;-63
2023/02/02 03:20:32;;;;;;;11.67;4.13;;;7.10;99.90;;;;;;5074839;28;20447;-63
2023/02/02 03:22:58;;;;;;;6.83;3.80;;;7.10;99.90;;;;;;5071737;28;20171;-63
2023/02/02 03:25:23;;;;;;;8.70;3.40;;;7.10;99.90;;;;;;5076965;28;20217;-63
2023/02/02 03:27:50;;;;;;;7.37;3.87;;;7.10;99.90;;;;;;5074075;28;20281;-63
2023/02/02 03:30:16;;;;;;;12.60;4.50;;;7.10;99.90;;;;;;5076293;28;20183;-63
2023/02/02 03:32:41;;;;;;;14.73;4.70;;;7.10;99.90;;;;;;5057628;28;20958;-63
2023/02/02 03:35:08;;;;;;;10.43;3.37;;;7.10;99.90;;;;;;5070617;28;20453;-63
2023/02/02 03:37:33;;;;;;;11.63;3.80;;;7.20;99.90;;;;;;5075025;28;20265;-62
2023/02/02 03:39:59;;;;;;;9.37;4.50;;;7.20;99.90;;;;;;5057206;28;20837;-62
2023/02/02 03:42:25;;;;;;;10.17;3.50;;;7.20;99.90;;;;;;5073946;28;22121;-62
2023/02/02 03:44:50;;;;;;;10.43;3.90;;;7.20;99.90;;;;;;5074517;28;20637;-63
2023/02/02 03:47:16;;;;;;;9.87;3.37;;;7.20;99.90;;;;;;5074931;28;20203;-63
2023/02/02 03:49:42;;;;;;;5.90;3.80;;;7.10;99.90;;;;;;5074968;28;20179;-63
2023/02/02 03:52:07;;;;;;;14.43;4.33;;;7.10;99.90;;;;;;5067771;28;20186;-63
2023/02/02 03:54:33;;;;;;;8.07;4.40;;;7.10;99.90;;;;;;5059756;28;20217;-62
2023/02/02 03:56:58;;;;;;;10.40;3.67;;;7.00;99.90;;;;;;5073090;28;20202;-63
2023/02/02 03:59:24;;;;;;;8.40;3.33;;;7.10;99.90;;;;;;5058069;28;20185;-63
2023/02/02 04:01:49;;;;;;;10.33;3.60;;;7.00;99.90;;;;;;5075486;28;20221;-63
2023/02/02 04:04:15;;;;;;;8.63;3.83;;;7.00;99.90;;;;;;5073513;28;20252;-63
2023/02/02 04:06:41;;;;;;;9.50;3.40;;;7.00;99.90;;;;;;5072955;28;20218;-63
2023/02/02 04:09:06;;;;;;;10.47;4.40;;;7.00;99.90;;;;;;5073241;28;20183;-63
2023/02/02 04:11:32;;;;;;;13.57;3.80;;;7.00;99.90;;;;;;5077280;28;20411;-63
2023/02/02 04:13:57;;;;;;;12.33;4.00;;;7.10;99.90;;;;;;5073695;28;20183;-64
2023/02/02 04:16:23;;;;;;;12.50;4.20;;;7.10;99.90;;;;;;5073641;28;20684;-64
2023/02/02 04:18:49;;;;;;;14.63;4.20;;;7.10;99.90;;;;;;5076125;28;20648;-64
2023/02/02 04:21:14;;;;;;;7.50;3.13;;;7.10;99.90;;;;;;5057142;28;20179;-63
2023/02/02 04:23:40;;;;;;;10.60;3.93;;;7.10;99.90;;;;;;5077888;28;20189;-63
2023/02/02 04:26:05;;;;;;;11.80;3.20;;;7.10;99.90;;;;;;5059509;28;20577;-64
2023/02/02 04:28:31;;;;;;;9.33;3.60;;;7.00;99.90;;;;;;5056783;28;20879;-64
2023/02/02 04:30:57;;;;;;;9.20;3.87;;;7.10;99.90;;;;;;5072551;28;20231;-64
2023/02/02 04:33:24;;;;;;;15.47;3.40;;;7.10;99.90;;;;;;5073063;28;20174;-65
2023/02/02 04:35:50;;;;;;;9.20;3.43;;;7.20;99.90;;;;;;5072549;28;20505;-65
2023/02/02 04:38:15;;;;;;;9.93;3.33;;;7.20;99.90;;;;;;5070094;28;20456;-63
2023/02/02 04:40:43;;;;;;;9.13;3.60;;;7.20;99.90;;;;;;5057270;28;20641;-63
2023/02/02 04:43:09;;;;;;;14.83;4.13;;;7.20;99.90;;;;;;5072018;28;20182;-63
2023/02/02 04:45:35;;;;;;;9.40;3.43;;;7.20;99.90;;;;;;5072674;28;20472;-63
2023/02/02 04:48:01;;;;;;;7.07;3.13;;;7.30;99.90;;;;;;5072944;28;20533;-63
2023/02/02 04:50:27;;;;;;;9.90;3.60;;;7.30;99.90;;;;;;5074542;28;20519;-63
2023/02/02 04:52:53;;;;;;;10.70;3.80;;;7.30;99.90;;;;;;5074897;28;20437;-63
2023/02/02 04:55:19;;;;;;;9.17;4.20;;;7.30;99.90;;;;;;5072466;28;20428;-63
2023/02/02 04:57:44;;;;;;;7.60;2.80;;;7.30;99.90;;;;;;5070905;28;20210;-63
2023/02/02 05:00:11;;;;;;;15.70;5.73;;;7.30;99.90;;;;;;5073671;28;20830;-63
2023/02/02 05:02:38;;;;;;;14.87;3.77;;;7.40;99.90;;;;;;5069726;28;20194;-63
2023/02/02 05:05:06;;;;;;;11.83;4.20;;;7.40;99.90;;;;;;5073211;28;20910;-63
2023/02/02 05:07:31;;;;;;;10.27;3.37;;;7.30;99.90;;;;;;5067635;28;20890;-63
2023/02/02 05:09:57;;;;;;;8.73;3.20;;;7.30;99.90;;;;;;5073655;28;20494;-63
2023/02/02 05:12:22;;;;;;;6.40;2.60;;;7.30;99.90;;;;;;5071461;28;20261;-63
2023/02/02 05:14:48;;;;;;;6.93;3.27;;;7.30;99.90;;;;;;5072850;28;20186;-63
2023/02/02 05:17:14;;;;;;;9.30;3.83;;;7.30;99.90;;;;;;5070500;28;20289;-63
2023/02/02 05:19:40;;;;;;;9.60;3.37;;;7.30;99.90;;;;;;5071907;28;20201;-63
2023/02/02 05:22:05;;;;;;;11.27;4.00;;;7.30;99.90;;;;;;5072034;28;20178;-63
2023/02/02 05:24:31;;;;;;;7.90;3.70;;;7.30;99.90;;;;;;5074876;28;20530;-63
2023/02/02 05:26:59;;;;;;;9.17;3.73;;;7.30;99.90;;;;;;5074492;28;20259;-63
2023/02/02 05:29:25;;;;;;;9.60;4.60;;;7.20;99.90;;;;;;5073629;28;20685;-63
2023/02/02 05:31:51;;;;;;;11.50;3.80;;;7.30;99.90;;;;;;5069115;28;20432;-63
2023/02/02 05:34:17;;;;;;;10.63;3.63;;;7.30;99.90;;;;;;5067744;28;20460;-63
2023/02/02 05:36:43;;;;;;;9.10;4.00;;;7.30;99.90;;;;;;5075780;28;20535;-63
2023/02/02 05:39:09;;;;;;;10.23;3.97;;;7.40;99.90;;;;;;5073411;28;20552;-62
2023/02/02 05:41:34;;;;;;;8.60;3.07;;;7.50;99.90;;;;;;5076269;28;20190;-63
2023/02/02 05:44:00;;;;;;;9.67;3.67;;;7.40;99.90;;;;;;5071986;28;20447;-63
2023/02/02 05:46:26;;;;;;;4.73;3.07;;;7.40;99.90;;;;;;5069429;28;20210;-63
2023/02/02 05:48:52;;;;;;;11.10;4.33;;;7.40;99.90;;;;;;5071623;28;20946;-63
2023/02/02 05:51:22;;;;;;;8.23;4.90;;;7.40;99.90;;;;;;5064504;28;20655;-63
2023/02/02 05:53:47;;;;;;;9.53;3.37;;;7.40;99.90;;;;;;5073235;28;20201;-64
2023/02/02 05:56:14;;;;;;;8.53;4.07;;;7.40;99.90;;;;;;5051737;28;21030;-63
2023/02/02 05:58:40;;;;;;;8.43;4.13;;;7.40;99.90;;;;;;5073028;28;20228;-63
2023/02/02 06:01:06;;;;;;;9.97;3.67;;;7.50;99.90;;;;;;5072539;28;20465;-64
2023/02/02 06:03:31;;;;;;;9.00;3.30;;;7.50;99.90;;;;;;5073019;28;20444;-63
2023/02/02 06:05:57;;;;;;;9.10;4.33;;;7.50;99.90;;;;;;5072021;28;20206;-63
2023/02/02 06:08:22;;;;;;;10.40;3.57;;;7.50;99.90;;;;;;5071580;28;20573;-64
2023/02/02 06:10:48;;;;;;;7.60;3.07;;;7.50;99.90;;;;;;5073198;28;20186;-64
2023/02/02 06:13:14;;;;;;;14.47;3.23;;;7.60;99.90;;;;;;5051748;28;20175;-63
2023/02/02 06:15:41;;;;;;;8.17;4.13;;;7.60;99.90;;;;;;5073409;28;20214;-63
2023/02/02 06:18:07;;;;;;;9.80;3.90;;;7.60;99.90;;;;;;5073114;28;20435;-63
2023/02/02 06:20:33;;;;;;;7.53;3.63;;;7.60;99.90;;;;;;5071487;28;20465;-64
2023/02/02 06:22:59;;;;;;;11.60;4.03;;;7.60;99.90;;;;;;5073035;28;20437;-64
2023/02/02 06:25:24;;;;;;;11.37;3.60;;;7.60;99.90;;;;;;5069964;28;20498;-63
2023/02/02 06:27:54;;;;;;;6.87;3.70;;;7.60;99.90;;;;;;5072038;28;20586;-64
2023/02/02 06:30:20;;;;;;;20.53;4.30;;;7.60;99.90;;;;;;5070631;28;20187;-63
2023/02/02 06:32:46;;;;;;;10.27;5.23;;;7.60;99.90;;;;;;5056565;28;20785;-63
2023/02/02 06:35:11;;;;;;;10.53;3.93;;;7.60;99.90;;;;;;5056519;28;20231;-64
2023/02/02 06:37:38;;;;;;;7.77;3.67;;;7.50;99.90;;;;;;5072219;28;20206;-63
2023/02/02 06:40:05;;;;;;;9.23;3.30;;;7.50;99.90;;;;;;5069655;28;20175;-63
2023/02/02 06:42:31;;;;;;;14.47;4.20;;;7.60;99.90;;;;;;5071888;28;20472;-64
2023/02/02 06:44:56;;;;;;;12.80;4.30;;;7.50;99.90;;;;;;5069682;28;20559;-64
2023/02/02 06:47:22;;;;;;;8.37;3.73;;;7.60;99.90;;;;;;5067012;28;20209;-64
2023/02/02 06:49:47;;;;;;;9.60;3.60;;;7.50;99.90;;;;;;5069906;28;20216;-64
2023/02/02 06:52:13;;;;;;;7.87;4.30;;;7.50;99.90;;;;;;5067650;28;20279;-64
2023/02/02 06:54:38;;;;;;;10.00;3.90;;;7.40;99.90;;;;;;5069726;28;20220;-64
2023/02/02 06:57:04;;;;;;;10.33;4.17;;;7.50;99.90;;;;;;5073176;28;20206;-63
2023/02/02 06:59:30;;;;;;;7.23;4.27;;;7.50;99.90;;;;;;5066574;28;20197;-63
2023/02/02 07:01:55;;;;;;;13.63;4.70;;;7.50;99.90;;;;;;5069245;28;20215;-63
2023/02/02 07:04:21;;;;;;;10.13;4.43;;;7.50;99.90;;;;;;5073720;28;20194;-64
2023/02/02 07:06:46;;;;;;;13.27;4.03;;;7.50;99.90;;;;;;5077050;28;20664;-63
2023/02/02 07:09:12;;;;;;;14.87;5.20;;;7.40;99.90;;;;;;5051131;28;20244;-63
2023/02/02 07:11:38;;;;;;;12.20;5.10;;;7.50;99.90;;;;;;5068945;28;20178;-63
2023/02/02 07:14:04;;;;;;;11.23;4.40;;;7.50;99.90;;;;;;5054884;28;20260;-64
2023/02/02 07:16:29;;;;;;;18.27;4.47;;;7.60;99.90;;;;;;5071829;28;20195;-62
2023/02/02 07:18:56;;;;;;;6.83;3.70;;;7.70;99.90;;;;;;5065333;28;20487;-63
2023/02/02 07:21:24;;;;;;;10.97;4.30;;;7.60;99.90;;;;;;5068156;28;20194;-63
2023/02/02 07:23:49;;;;;;;14.53;4.17;;;7.60;99.90;;;;;;5047509;28;20432;-63
2023/02/02 07:26:17;;;;;;;19.40;5.97;;;7.50;99.90;;;;;;5070841;28;20467;-64
2023/02/02 07:28:43;;;;;;;9.70;3.50;;;7.60;99.90;;;;;;5071389;28;20526;-63
2023/02/02 07:31:20;;;;;;;13.87;5.53;;;7.50;99.90;;;;;;5059752;28;20486;-64
2023/02/02 07:33:47;;;;;;;15.07;3.73;;;7.50;99.90;;;;;;5070841;28;20994;-63
2023/02/02 07:36:16;;;;;;;9.37;4.13;;;7.40;99.90;;;;;;5073133;28;20582;-63
2023/02/02 07:38:42;;;;;;;8.67;4.20;;;7.50;99.90;;;;;;5074129;28;20525;-63
2023/02/02 07:41:08;;;;;;;12.40;4.47;;;7.50;99.90;;;;;;5069909;28;20453;-63
2023/02/02 07:43:34;;;;;;;14.37;3.97;;;7.40;99.90;;;;;;5073398;28;20773;-62
2023/02/02 07:46:01;;;;;;;10.73;3.77;;;7.40;99.90;;;;;;5069827;28;20275;-66
2023/02/02 07:48:28;;;;;;;13.83;5.93;;;7.50;99.90;;;;;;5072978;28;20168;-67
2023/02/02 07:50:57;;;;;;;10.10;4.83;;;7.40;99.90;;;;;;5073688;28;21145;-67
2023/02/02 07:53:22;;;;;;;6.90;3.80;;;7.40;99.90;;;;;;5069303;28;20456;-66
2023/02/02 07:55:48;;;;;;;13.47;3.97;;;7.50;99.90;;;;;;5050885;28;20503;-66
2023/02/02 07:58:13;;;;;;;13.97;4.80;;;7.50;99.90;;;;;;5068633;28;20187;-65
2023/02/02 08:00:39;;;;;;;12.77;4.53;;;7.60;99.90;;;;;;5071845;28;20281;-66
2023/02/02 08:03:05;;;;;;;14.80;5.37;;;7.70;99.90;;;;;;5070048;28;20186;-66
2023/02/02 08:05:31;;;;;;;13.33;4.70;;;7.60;99.90;;;;;;5067315;28;20213;-65
2023/02/02 08:07:57;;;;;;;13.97;6.40;;;7.70;99.90;;;;;;5073442;28;20210;-65
2023/02/02 08:10:22;;;;;;;15.57;4.80;;;7.70;99.90;;;;;;5071911;28;20570;-68
2023/02/02 08:12:48;;;;;;;15.47;4.10;;;7.80;99.90;;;;;;5056969;28;20313;-66
2023/02/02 08:15:13;;;;;;;13.23;4.53;;;7.90;99.90;;;;;;5062003;28;20182;-66
2023/02/02 08:17:42;;;;;;;11.20;4.87;;;8.00;99.90;;;;;;5056871;28;20214;-66
2023/02/02 08:20:09;;;;;;;14.80;4.80;;;8.00;99.90;;;;;;5068725;28;20668;-65
2023/02/02 08:22:34;;;;;;;15.80;4.40;;;8.10;99.90;;;;;;5072305;28;20443;-66
2023/02/02 08:25:00;;;;;;;12.97;4.70;;;8.20;99.90;;;;;;5055614;28;20493;-64
2023/02/02 08:27:26;;;;;;;11.47;4.73;;;8.20;99.90;;;;;;5073290;28;20238;-64
2023/02/02 08:29:51;;;;;;;19.63;5.07;;;8.20;99.90;;;;;;5066019;28;20205;-66
2023/02/02 08:32:17;;;;;;;16.27;4.87;;;8.30;99.90;;;;;;5054375;28;20184;-67
2023/02/02 08:34:42;;;;;;;16.20;4.63;;;8.20;99.90;;;;;;5073597;28;20235;-66
2023/02/02 08:37:08;;;;;;;11.50;6.00;;;8.30;99.90;;;;;;5074440;28;20255;-66
2023/02/02 08:39:34;;;;;;;12.70;4.80;;;8.30;99.90;;;;;;5056610;28;20255;-66
2023/02/02 08:41:59;;;;;;;16.90;5.30;;;8.30;99.90;;;;;;5076423;28;20466;-66
2023/02/02 08:44:25;;;;;;;18.00;5.37;;;8.30;99.90;;;;;;5069809;28;20203;-66
2023/02/02 08:46:51;;;;;;;10.80;4.30;;;8.30;99.90;;;;;;5074300;28;20190;-67
2023/02/02 08:49:16;;;;;;;13.97;4.83;;;8.30;99.90;;;;;;5058097;28;20932;-66
2023/02/02 08:51:42;;;;;;;15.73;5.50;;;8.30;99.90;;;;;;5058607;28;20265;-65
2023/02/02 08:54:10;;;;;;;16.20;6.20;;;8.20;99.90;;;;;;5075109;28;20605;-66
2023/02/02 08:56:36;;;;;;;15.23;5.90;;;8.30;99.90;;;;;;5075482;28;20249;-65
2023/02/02 08:59:03;;;;;;;18.60;5.63;;;8.40;99.90;;;;;;5075649;28;20492;-66
2023/02/02 09:01:31;;;;;;;10.53;5.30;;;8.30;99.90;;;;;;5073915;28;20185;-69
2023/02/02 09:04:06;;;;;;;11.80;5.00;;;8.30;99.90;;;;;;5073545;28;20505;-66
2023/02/02 09:06:34;;;;;;;13.93;5.70;;;8.40;99.90;;;;;;5070364;28;20447;-66
2023/02/02 09:09:00;;;;;;;20.90;6.47;;;8.20;99.90;;;;;;5072216;28;20436;-66
2023/02/02 09:11:26;;;;;;;16.37;5.10;;;8.20;99.90;;;;;;5071564;28;20440;-73
2023/02/02 09:13:57;;;;;;;17.07;4.97;;;8.30;99.90;;;;;;5072357;28;20420;-66
2023/02/02 09:16:24;;;;;;;17.40;6.70;;;8.40;99.90;;;;;;5074115;28;20478;-64
2023/02/02 09:18:50;;;;;;;25.47;5.47;;;8.40;99.90;;;;;;5069433;28;21025;-63
2023/02/02 09:21:17;;;;;;;10.77;5.20;;;8.30;99.90;;;;;;5055865;28;20417;-64
2023/02/02 09:23:44;;;;;;;12.83;5.60;;;8.30;99.90;;;;;;5071864;28;20444;-66
2023/02/02 09:26:10;;;;;;;11.87;5.50;;;8.40;99.90;;;;;;5047427;28;21218;-66
2023/02/02 09:28:36;;;;;;;8.57;5.03;;;8.40;99.90;;;;;;5070580;28;20533;-66
2023/02/02 09:31:02;;;;;;;15.90;5.53;;;8.50;99.90;;;;;;5071188;28;20447;-67
2023/02/02 09:33:28;;;;;;;13.50;5.07;;;8.50;99.90;;;;;;5073863;28;20587;-66
2023/02/02 09:35:53;;;;;;;14.93;5.37;;;8.60;99.90;;;;;;5054489;28;20548;-66
2023/02/02 09:38:19;;;;;;;15.10;5.53;;;8.50;99.90;;;;;;5072887;28;20189;-67
2023/02/02 09:40:44;;;;;;;15.47;5.37;;;8.50;99.90;;;;;;5071452;28;20182;-67
2023/02/02 09:43:39;;;;;;;12.90;5.07;;;8.50;99.90;;;;;;5073776;28;20627;-67
2023/02/02 09:46:13;;;;;;;17.23;4.90;;;8.50;99.90;;;;;;5069568;28;21034;-67
2023/02/02 09:48:54;;;;;;;18.57;4.73;;;8.50;99.90;;;;;;5068995;28;20424;-68
2023/02/02 09:51:24;;;;;;;11.30;5.07;;;8.50;99.90;;;;;;5072745;28;20455;-67
2023/02/02 09:54:03;;;;;;;6.63;3.97;;;8.50;99.90;;;;;;5071842;28;20428;-67
2023/02/02 09:56:42;;;;;;;15.40;4.53;;;8.60;99.90;;;;;;5073331;28;20855;-67
2023/02/02 09:59:17;;;;;;;11.13;4.17;;;8.60;99.90;;;;;;5073688;28;20679;-66
2023/02/02 10:01:43;;;;;;;12.03;4.80;;;8.50;99.90;;;;;;5068824;28;20800;-66
2023/02/02 10:04:17;;;;;;;17.87;5.53;;;8.60;99.90;;;;;;5070765;28;20463;-68
2023/02/02 10:06:47;;;;;;;15.77;4.17;;;8.70;99.90;;;;;;5068918;28;20549;-68
2023/02/02 10:09:46;;;;;;;18.07;4.80;;;8.70;99.90;;;;;;5071061;28;20489;-67
2023/02/02 10:12:24;;;;;;;17.37;5.43;;;8.80;99.90;;;;;;5076044;28;21150;-68
2023/02/02 10:15:12;;;;;;;11.60;4.67;;;8.80;99.90;;;;;;5076430;28;20440;-67
2023/02/02 10:17:53;;;;;;;12.77;4.60;;;8.90;99.90;;;;;;5073676;28;20867;-67
2023/02/02 10:20:44;;;;;;;12.83;4.20;;;8.90;99.90;;;;;;5071977;28;20505;-67
2023/02/02 10:23:36;;;;;;;13.40;4.57;;;8.80;99.90;;;;;;5074307;28;20475;-67
2023/02/02 10:26:28;;;;;;;16.73;4.73;;;8.80;99.90;;;;;;5073389;28;20472;-67
2023/02/02 10:29:09;;;;;;;10.27;4.80;;;8.80;99.90;;;;;;5065947;28;21089;-68
2023/02/02 10:32:10;;;;;;;17.23;4.60;;;8.90;99.90;;;;;;5068554;28;20452;-67
2023/02/02 10:34:53;;;;;;;12.37;4.30;;;8.90;99.90;;;;;;5065456;28;20953;-66
2023/02/02 10:37:25;;;;;;;12.90;3.93;;;8.90;99.90;;;;;;5070427;28;20875;-67
2023/02/02 10:40:17;;;;;;;9.33;3.87;;;8.90;99.90;;;;;;5065329;28;20441;-67
2023/02/02 10:43:44;;;;;;;13.50;4.97;;;9.00;99.90;;;;;;5068309;28;20447;-67
2023/02/02 10:45:32;;;;;;;19.30;5.60;;;9.00;99.90;;;;;;5072019;28;20476;-66
2023/02/02 10:47:58;;;;;;;16.43;4.87;;;9.00;99.90;;;;;;5074864;28;20417;-68
2023/02/02 10:50:25;;;;;;;10.73;3.87;;;9.00;99.90;;;;;;5076472;28;20440;-68
2023/02/02 10:52:59;;;;;;;15.43;4.37;;;9.00;99.90;;;;;;5054945;28;20523;-68
2023/02/02 10:56:10;;;;;;;10.50;5.30;;;9.00;99.90;;;;;;5074585;28;20933;-67
2023/02/02 10:58:50;;;;;;;10.07;4.93;;;9.00;99.90;;;;;;5047798;28;20487;-66
2023/02/02 11:01:16;;;;;;;12.67;4.00;;;9.00;99.90;;;;;;5067793;28;20985;-67
2023/02/02 11:03:42;;;;;;;8.30;4.00;;;9.10;99.90;;;;;;5074397;28;20503;-67
2023/02/02 11:08:58;;;;;;;10.73;4.23;;;9.00;99.90;;;;;;5069132;28;20456;-66
2023/02/02 11:11:26;;;;;;;15.20;4.10;;;9.00;99.90;;;;;;5069952;28;20563;-63
2023/02/02 11:14:07;;;;;;;8.23;3.80;;;9.00;99.90;;;;;;5065956;28;20426;-66
2023/02/02 11:16:34;;;;;;;10.00;4.20;;;8.90;99.90;;;;;;5071778;28;20456;-67
2023/02/02 11:19:10;;;;;;;12.73;4.20;;;8.90;99.90;;;;;;5067434;28;20432;-63
2023/02/02 11:21:37;;;;;;;11.27;3.97;;;8.80;99.90;;;;;;5052582;28;20446;-65
2023/02/02 11:24:06;;;;;;;7.10;3.17;;;8.80;99.90;;;;;;5067879;28;20551;-67
2023/02/02 11:26:48;;;;;;;11.37;3.90;;;8.70;99.90;;;;;;5066519;28;20558;-66
2023/02/02 11:29:27;;;;;;;10.63;3.87;;;8.70;99.90;;;;;;5069486;28;20894;-66
2023/02/02 11:31:52;;;;;;;4.87;2.23;;;8.80;99.90;;;;;;5064028;28;20428;-65
2023/02/02 11:34:22;;;;;;;8.40;3.50;;;8.80;99.90;;;;;;5067840;28;20436;-66
2023/02/02 11:37:01;;;;;;;27.53;4.77;;;8.70;99.90;;;;;;5057594;28;20207;-67
2023/02/02 11:39:27;;;;;;;6.83;3.73;;;8.80;99.90;;;;;;5060978;28;20681;-66
2023/02/02 11:42:14;;;;;;;10.63;3.90;;;8.90;99.90;;;;;;5067210;28;20921;-65
2023/02/02 11:44:52;;;;;;;12.60;4.37;;;8.90;99.90;;;;;;5062474;28;20664;-66
2023/02/02 11:47:24;;;;;;;8.80;3.60;;;8.80;99.90;;;;;;5073586;28;20452;-66
2023/02/02 11:49:51;;;;;;;8.87;3.97;;;8.80;99.90;;;;;;5052354;28;20535;-66
2023/02/02 11:52:28;;;;;;;11.47;3.33;;;8.70;99.90;;;;;;5067891;28;20446;-68
2023/02/02 11:54:59;;;;;;;9.17;3.83;;;8.80;99.90;;;;;;5071801;28;20444;-65
2023/02/02 11:57:27;;;;;;;9.03;3.57;;;8.80;99.90;;;;;;5073045;28;20474;-66
2023/02/02 12:00:11;;;;;;;8.10;3.90;;;8.80;99.90;;;;;;5071948;28;20448;-66
2023/02/02 12:02:44;;;;;;;5.03;3.27;;;8.70;99.90;;;;;;5070148;28;20463;-65
2023/02/02 12:05:32;;;;;;;14.67;4.23;;;8.80;99.90;;;;;;5070600;28;20464;-65
2023/02/02 12:07:59;;;;;;;8.00;3.63;;;8.90;99.90;;;;;;5054889;28;21127;-65
2023/02/02 12:10:37;;;;;;;14.00;4.30;;;8.90;99.90;;;;;;5071726;28;20440;-65
2023/02/02 12:13:36;;;;;;;10.13;3.47;;;8.90;99.90;;;;;;5071125;28;20924;-65
2023/02/02 12:16:38;;;;;;;9.13;3.70;;;8.90;99.90;;;;;;5071889;28;20463;-65
2023/02/02 12:19:22;;;;;;;12.23;3.97;;;9.00;99.90;;;;;;5068297;28;20428;-65
2023/02/02 12:22:02;;;;;;;9.93;3.90;;;9.00;99.90;;;;;;5071655;28;20683;-65
2023/02/02 12:24:35;;;;;;;9.50;3.50;;;9.00;99.90;;;;;;5072279;28;20454;-65
2023/02/02 12:27:03;;;;;;;15.40;4.87;;;9.00;99.90;;;;;;5070650;28;20495;-66
2023/02/02 12:29:47;;;;;;;16.13;4.27;;;9.00;99.90;;;;;;5071204;28;20436;-66
2023/02/02 12:32:25;;;;;;;11.90;4.27;;;9.10;99.90;;;;;;5070879;28;20432;-66
2023/02/02 12:35:23;;;;;;;11.10;4.37;;;9.10;99.90;;;;;;5069771;28;20459;-66
2023/02/02 12:38:26;;;;;;;9.00;3.47;;;9.10;99.90;;;;;;5039995;28;20467;-65
2023/02/02 12:41:18;;;;;;;12.80;4.60;;;9.00;99.90;;;;;;5071182;28;20440;-66
2023/02/02 12:43:47;;;;;;;6.23;3.63;;;9.10;99.90;;;;;;5031527;28;20448;-67
2023/02/02 12:46:43;;;;;;;13.87;4.60;;;9.20;99.90;;;;;;5068105;28;20508;-67
2023/02/02 12:49:36;;;;;;;13.37;3.63;;;9.10;99.90;;;;;;5071119;28;20866;-67
2023/02/02 12:52:29;;;;;;;12.40;4.17;;;9.10;99.90;;;;;;5068369;28;20493;-66
2023/02/02 12:55:33;;;;;;;7.27;3.70;;;9.10;99.90;;;;;;5070809;28;20436;-66
2023/02/02 12:58:02;;;;;;;11.80;3.07;;;9.10;99.90;;;;;;5027057;28;20539;-66
2023/02/02 13:00:38;;;;;;;7.20;2.90;;;9.10;99.90;;;;;;5028320;28;20442;-67
2023/02/02 13:03:35;;;;;;;13.07;4.53;;;9.10;99.90;;;;;;5041926;28;20447;-67
2023/02/02 13:06:27;;;;;;;11.33;4.30;;;9.10;99.90;;;;;;5069501;28;20484;-67
2023/02/02 13:09:15;;;;;;;16.20;4.80;;;9.10;99.90;;;;;;5071710;28;20440;-66
2023/02/02 13:11:56;;;;;;;14.93;4.70;;;9.10;99.90;;;;;;5070106;28;21212;-66
2023/02/02 13:14:40;;;;;;;13.30;4.13;;;9.10;99.90;;;;;;5073245;28;20431;-66
2023/02/02 13:17:28;;;;;;;12.13;4.67;;;9.10;99.90;;;;;;5071127;28;20485;-67
2023/02/02 13:20:05;;;;;;;14.53;4.30;;;9.10;99.90;;;;;;5068686;28;20436;-66
2023/02/02 13:22:39;;;;;;;11.30;4.67;;;9.10;99.90;;;;;;5071888;28;20436;-66